Time;durP1;ratioP1;P1;durP2;ratioP2;P2;SDS_P1;SDS_P2;PMS_P1;PMS_P2;Temp;Humidity;BMP_temperature;BMP_pressure;BME280_temperature;BME280_humidity;BME280_pressure;Samples;Min_cycle;Max_cycle;Signal;HPM_P1;HPM_P2
2023/05/06 00:02:05;;;;;;;9.70;5.00;;;12.80;99.90;;;;;;5054754;28;20021;-75
2023/05/06 00:04:31;;;;;;;7.93;4.15;;;12.90;99.90;;;;;;5053641;28;20081;-75
2023/05/06 00:06:57;;;;;;;10.02;3.38;;;12.90;99.90;;;;;;5054325;28;20029;-75
2023/05/06 00:09:23;;;;;;;9.00;3.00;;;12.90;99.90;;;;;;5036237;28;20021;-75
2023/05/06 00:11:49;;;;;;;9.90;3.22;;;12.80;99.90;;;;;;5053851;28;20047;-76
2023/05/06 00:14:15;;;;;;;10.32;3.47;;;12.80;99.90;;;;;;5053901;28;20026;-76
2023/05/06 00:16:41;;;;;;;8.75;4.18;;;12.80;99.90;;;;;;5053872;28;20037;-75
2023/05/06 00:19:07;;;;;;;13.82;4.43;;;12.80;99.90;;;;;;5053840;28;20100;-76
2023/05/06 00:21:32;;;;;;;13.85;4.78;;;12.70;99.90;;;;;;5053705;28;20025;-74
2023/05/06 00:23:58;;;;;;;11.90;5.80;;;12.60;99.90;;;;;;5053538;28;20044;-75
2023/05/06 00:26:24;;;;;;;7.38;4.38;;;12.50;99.90;;;;;;5053151;28;20112;-75
2023/05/06 00:28:49;;;;;;;12.90;4.85;;;12.40;99.90;;;;;;5053765;28;20486;-74
2023/05/06 00:31:15;;;;;;;9.13;4.20;;;12.40;99.90;;;;;;5053203;28;20033;-75
2023/05/06 00:33:41;;;;;;;11.02;4.40;;;12.30;99.90;;;;;;5053616;28;20025;-75
2023/05/06 00:36:07;;;;;;;11.07;4.75;;;12.40;99.90;;;;;;5035790;28;20043;-75
2023/05/06 00:38:33;;;;;;;10.27;4.80;;;12.50;99.90;;;;;;5052938;28;20041;-75
2023/05/06 00:40:58;;;;;;;8.70;4.10;;;12.50;99.90;;;;;;5053897;28;20059;-75
2023/05/06 00:43:24;;;;;;;8.73;3.42;;;12.50;99.90;;;;;;5052889;28;20028;-75
2023/05/06 00:45:50;;;;;;;8.48;3.83;;;12.50;99.90;;;;;;5035561;28;20485;-75
2023/05/06 00:48:17;;;;;;;10.45;3.80;;;12.50;99.90;;;;;;5034330;28;20033;-76
2023/05/06 00:50:43;;;;;;;11.65;3.65;;;12.50;99.90;;;;;;5053094;28;20035;-75
2023/05/06 00:53:09;;;;;;;7.55;2.70;;;12.50;99.90;;;;;;5053201;28;20028;-75
2023/05/06 00:55:36;;;;;;;9.45;2.50;;;12.60;99.90;;;;;;5052701;28;20036;-75
2023/05/06 00:58:02;;;;;;;8.02;2.95;;;12.60;99.90;;;;;;5052813;28;20072;-75
2023/05/06 01:00:28;;;;;;;8.43;2.90;;;12.60;99.90;;;;;;5034753;28;20056;-76
2023/05/06 01:02:54;;;;;;;8.77;2.72;;;12.60;99.90;;;;;;5053962;28;20100;-75
2023/05/06 01:05:21;;;;;;;6.05;2.55;;;12.60;99.90;;;;;;5053279;28;20056;-75
2023/05/06 01:08:03;;;;;;;6.25;2.13;;;12.60;99.90;;;;;;5053731;28;20108;-74
2023/05/06 01:10:44;;;;;;;6.60;2.15;;;12.70;99.90;;;;;;5053390;28;20031;-75
2023/05/06 01:13:32;;;;;;;9.05;2.47;;;12.70;99.90;;;;;;5053427;28;20037;-75
2023/05/06 01:16:00;;;;;;;8.75;2.50;;;12.70;99.90;;;;;;5034987;28;20040;-75
2023/05/06 01:18:27;;;;;;;5.45;1.88;;;12.70;99.90;;;;;;5035828;28;20037;-75
2023/05/06 01:20:55;;;;;;;6.22;2.35;;;12.70;99.90;;;;;;5019802;28;20044;-74
2023/05/06 01:23:21;;;;;;;6.18;2.40;;;12.80;99.90;;;;;;5053780;28;20056;-74
2023/05/06 01:25:46;;;;;;;6.55;2.45;;;12.80;99.90;;;;;;5053098;28;20059;-75
2023/05/06 01:28:13;;;;;;;7.72;2.47;;;12.80;99.90;;;;;;5053204;28;20075;-75
2023/05/06 01:30:52;;;;;;;6.03;2.25;;;12.80;99.90;;;;;;5053208;28;20063;-76
2023/05/06 01:33:56;;;;;;;6.53;2.40;;;12.80;99.90;;;;;;5052967;28;20483;-75
2023/05/06 01:36:34;;;;;;;7.50;2.53;;;12.80;99.90;;;;;;5035052;28;20029;-76
2023/05/06 01:39:24;;;;;;;7.10;2.30;;;12.80;99.90;;;;;;5053628;28;20052;-75
2023/05/06 01:41:52;;;;;;;6.63;2.25;;;12.80;99.90;;;;;;5053444;28;20055;-74
2023/05/06 01:44:21;;;;;;;4.53;1.90;;;12.80;99.90;;;;;;5052490;28;20032;-75
2023/05/06 01:46:48;;;;;;;6.25;2.17;;;12.70;99.90;;;;;;5052951;28;20029;-76
2023/05/06 01:49:15;;;;;;;6.72;2.90;;;12.70;99.90;;;;;;5052913;28;20032;-75
2023/05/06 01:51:47;;;;;;;5.22;2.35;;;12.70;99.90;;;;;;5035237;28;20483;-74
2023/05/06 01:54:13;;;;;;;10.55;3.33;;;12.60;99.90;;;;;;5053095;28;20064;-74
2023/05/06 01:56:39;;;;;;;6.03;2.45;;;12.60;99.90;;;;;;5052127;28;20033;-75
2023/05/06 01:59:05;;;;;;;8.38;3.08;;;12.60;99.90;;;;;;5018720;28;20076;-75
2023/05/06 02:01:31;;;;;;;7.35;2.75;;;12.60;99.90;;;;;;5052323;28;20428;-75
2023/05/06 02:03:56;;;;;;;6.90;2.60;;;12.60;99.90;;;;;;5035126;28;20029;-74
2023/05/06 02:06:22;;;;;;;5.05;2.08;;;12.50;99.90;;;;;;5034472;28;20058;-75
2023/05/06 02:08:48;;;;;;;5.72;2.28;;;12.50;99.90;;;;;;5053325;28;20025;-75
2023/05/06 02:11:14;;;;;;;6.63;2.70;;;12.50;99.90;;;;;;5053325;28;20025;-75
2023/05/06 02:13:40;;;;;;;6.97;2.67;;;12.50;99.90;;;;;;5052931;28;20029;-74
2023/05/06 02:16:07;;;;;;;9.43;2.40;;;12.40;99.90;;;;;;5053139;28;20417;-73
2023/05/06 02:18:33;;;;;;;9.90;2.60;;;12.30;99.90;;;;;;5034636;28;20033;-74
2023/05/06 02:20:59;;;;;;;7.80;2.72;;;12.20;99.90;;;;;;5052772;28;20025;-74
2023/05/06 02:23:25;;;;;;;8.13;2.65;;;12.10;99.90;;;;;;5052250;28;20028;-74
2023/05/06 02:25:51;;;;;;;8.30;2.83;;;12.00;99.90;;;;;;5053184;28;20108;-75
2023/05/06 02:28:17;;;;;;;6.22;2.85;;;12.10;99.90;;;;;;5052632;28;20369;-75
2023/05/06 02:30:44;;;;;;;8.55;2.95;;;12.00;99.90;;;;;;5052651;28;20017;-74
2023/05/06 02:33:09;;;;;;;5.53;2.83;;;12.00;99.90;;;;;;5034886;28;20025;-74
2023/05/06 02:35:35;;;;;;;7.45;3.30;;;11.90;99.90;;;;;;5034677;28;20025;-74
2023/05/06 02:38:03;;;;;;;6.70;2.75;;;11.80;99.90;;;;;;5052663;28;20406;-74
2023/05/06 02:40:29;;;;;;;7.07;2.35;;;11.90;99.90;;;;;;5034155;28;20025;-74
2023/05/06 02:42:54;;;;;;;4.93;2.70;;;11.80;99.90;;;;;;5052387;28;20067;-74
2023/05/06 02:45:20;;;;;;;4.97;2.35;;;11.80;99.90;;;;;;5051852;28;20057;-74
2023/05/06 02:47:46;;;;;;;9.63;3.13;;;11.80;99.90;;;;;;5052253;28;20089;-74
2023/05/06 02:50:12;;;;;;;7.60;2.80;;;11.70;99.90;;;;;;5052495;28;20017;-74
2023/05/06 02:52:38;;;;;;;6.47;2.88;;;11.70;99.90;;;;;;5051932;28;20025;-74
2023/05/06 02:55:05;;;;;;;6.70;2.78;;;11.70;99.90;;;;;;5051980;28;20437;-74
2023/05/06 02:57:30;;;;;;;6.30;3.25;;;11.60;99.90;;;;;;5051349;28;20401;-74
2023/05/06 02:59:56;;;;;;;7.88;3.13;;;11.60;99.90;;;;;;5034598;28;20115;-74
2023/05/06 03:02:22;;;;;;;8.55;2.88;;;11.60;99.90;;;;;;5051407;28;20021;-75
2023/05/06 03:04:48;;;;;;;7.13;2.97;;;11.50;99.90;;;;;;5051993;28;20363;-75
2023/05/06 03:07:13;;;;;;;5.63;2.92;;;11.50;99.90;;;;;;5052015;28;20033;-74
2023/05/06 03:09:39;;;;;;;8.23;3.05;;;11.50;99.90;;;;;;5051640;28;20029;-75
2023/05/06 03:12:05;;;;;;;8.73;2.72;;;11.50;99.90;;;;;;5054455;28;20021;-74
2023/05/06 03:14:31;;;;;;;9.73;2.83;;;11.50;99.90;;;;;;5054853;28;20029;-75
2023/05/06 03:16:57;;;;;;;10.48;3.22;;;11.50;99.90;;;;;;5055467;28;20457;-75
2023/05/06 03:19:22;;;;;;;11.13;3.10;;;11.50;99.90;;;;;;5055116;28;20028;-75
2023/05/06 03:21:48;;;;;;;6.97;3.10;;;11.50;99.90;;;;;;5055508;28;20044;-75
2023/05/06 03:24:14;;;;;;;6.75;3.15;;;11.40;99.90;;;;;;5055759;28;20049;-75
2023/05/06 03:26:40;;;;;;;8.05;3.00;;;11.50;99.90;;;;;;5054981;28;20823;-74
2023/05/06 03:29:05;;;;;;;7.57;3.10;;;11.50;99.90;;;;;;5055356;28;20053;-76
2023/05/06 03:31:31;;;;;;;6.72;2.55;;;11.40;99.90;;;;;;5055073;28;20382;-75
2023/05/06 03:33:57;;;;;;;5.28;2.75;;;11.30;99.90;;;;;;5055779;28;20028;-74
2023/05/06 03:36:24;;;;;;;7.80;3.08;;;11.20;99.90;;;;;;5037425;28;20096;-76
2023/05/06 03:38:50;;;;;;;9.27;3.08;;;11.30;99.90;;;;;;5037765;28;20041;-75
2023/05/06 03:41:17;;;;;;;7.82;2.92;;;11.10;99.90;;;;;;5055507;28;20025;-74
2023/05/06 03:43:42;;;;;;;7.80;3.03;;;11.20;99.90;;;;;;5054873;28;20216;-75
2023/05/06 03:46:08;;;;;;;6.28;3.05;;;11.20;99.90;;;;;;5054942;28;20502;-75
2023/05/06 03:48:34;;;;;;;6.45;2.67;;;11.20;99.90;;;;;;5054523;28;20158;-75
2023/05/06 03:51:00;;;;;;;7.03;3.05;;;11.20;99.90;;;;;;5055236;28;20475;-75
2023/05/06 03:53:26;;;;;;;7.03;2.97;;;11.20;99.90;;;;;;5036721;28;20025;-75
2023/05/06 03:55:52;;;;;;;7.35;2.92;;;11.20;99.90;;;;;;5055203;28;20029;-75
2023/05/06 03:58:18;;;;;;;6.28;3.20;;;11.10;99.90;;;;;;5054834;28;20033;-75
2023/05/06 04:00:44;;;;;;;4.68;3.15;;;11.10;99.90;;;;;;5054358;28;20025;-75
2023/05/06 04:03:10;;;;;;;5.38;2.85;;;11.10;99.90;;;;;;5055331;28;20021;-74
2023/05/06 04:05:36;;;;;;;5.75;3.35;;;11.10;99.90;;;;;;5054478;28;20029;-75
2023/05/06 04:08:02;;;;;;;7.97;3.45;;;11.10;99.90;;;;;;5055038;28;20466;-75
2023/05/06 04:10:28;;;;;;;5.43;2.80;;;11.10;99.90;;;;;;5054536;28;20036;-75
2023/05/06 04:12:54;;;;;;;10.80;3.55;;;11.10;99.90;;;;;;5036771;28;20078;-75
2023/05/06 04:15:19;;;;;;;10.15;4.18;;;11.10;99.90;;;;;;5054852;28;20075;-75
2023/05/06 04:17:45;;;;;;;12.30;3.92;;;11.10;99.90;;;;;;5054178;28;20053;-74
2023/05/06 04:20:13;;;;;;;7.82;3.58;;;11.10;99.90;;;;;;5054449;28;20433;-75
2023/05/06 04:22:39;;;;;;;9.68;3.55;;;11.10;99.90;;;;;;5052953;28;20032;-75
2023/05/06 04:25:05;;;;;;;9.63;3.33;;;11.00;99.90;;;;;;5054487;28;20021;-75
2023/05/06 04:27:31;;;;;;;8.48;3.10;;;10.90;99.90;;;;;;5053775;28;20120;-74
2023/05/06 04:29:57;;;;;;;6.03;3.15;;;10.90;99.90;;;;;;5035922;28;20127;-74
2023/05/06 04:32:26;;;;;;;6.03;3.00;;;10.80;99.90;;;;;;5054207;28;20033;-74
2023/05/06 04:34:56;;;;;;;8.02;3.58;;;10.80;99.90;;;;;;5053633;28;20025;-74
2023/05/06 04:37:22;;;;;;;6.72;3.38;;;10.90;99.90;;;;;;5036328;28;20496;-73
2023/05/06 04:39:48;;;;;;;10.80;3.40;;;10.90;99.90;;;;;;5053443;28;20070;-75
2023/05/06 04:42:14;;;;;;;6.97;3.72;;;10.90;99.90;;;;;;5053715;28;20025;-74
2023/05/06 04:44:41;;;;;;;8.82;3.55;;;11.00;99.90;;;;;;5053325;28;20021;-74
2023/05/06 04:47:07;;;;;;;7.78;3.22;;;11.00;99.90;;;;;;5053656;28;20024;-74
2023/05/06 04:49:33;;;;;;;9.13;3.40;;;11.00;99.90;;;;;;5055473;28;20167;-75
2023/05/06 04:51:59;;;;;;;8.35;3.53;;;11.00;99.90;;;;;;5056913;28;20036;-75
2023/05/06 04:54:25;;;;;;;6.03;3.47;;;10.90;99.90;;;;;;5056748;28;20021;-74
2023/05/06 04:56:50;;;;;;;7.35;3.85;;;10.90;99.90;;;;;;5056418;28;20540;-74
2023/05/06 04:59:16;;;;;;;9.13;3.72;;;10.80;99.90;;;;;;5039031;28;20025;-75
2023/05/06 05:01:42;;;;;;;7.35;2.85;;;10.70;99.90;;;;;;5055047;28;20024;-74
2023/05/06 05:04:08;;;;;;;10.02;3.38;;;10.60;99.90;;;;;;5038196;28;20025;-74
2023/05/06 05:06:33;;;;;;;5.43;3.03;;;10.60;99.90;;;;;;5055507;28;20025;-74
2023/05/06 05:08:59;;;;;;;7.38;2.90;;;10.70;99.90;;;;;;5055355;28;20033;-74
2023/05/06 05:11:25;;;;;;;7.50;3.85;;;10.70;99.90;;;;;;5054931;28;20420;-75
2023/05/06 05:13:51;;;;;;;9.35;3.85;;;10.70;99.90;;;;;;5053956;28;20024;-74
2023/05/06 05:16:17;;;;;;;7.65;3.97;;;10.80;99.90;;;;;;5054507;28;20475;-76
2023/05/06 05:18:42;;;;;;;7.68;3.70;;;10.80;99.90;;;;;;5052979;28;20478;-74
2023/05/06 05:21:08;;;;;;;7.60;3.25;;;10.80;99.90;;;;;;5054021;28;20028;-74
2023/05/06 05:23:34;;;;;;;6.68;3.40;;;10.80;99.90;;;;;;5053727;28;20025;-74
2023/05/06 05:26:00;;;;;;;10.23;3.42;;;10.80;99.90;;;;;;5035856;28;20439;-74
2023/05/06 05:28:26;;;;;;;7.35;3.50;;;10.70;99.90;;;;;;5053739;28;20049;-75
2023/05/06 05:30:52;;;;;;;8.45;3.60;;;10.80;99.90;;;;;;5053175;28;20040;-75
2023/05/06 05:33:18;;;;;;;9.82;4.00;;;10.90;99.90;;;;;;5054240;28;20064;-74
2023/05/06 05:35:44;;;;;;;6.03;3.17;;;11.00;99.90;;;;;;5052448;28;20025;-75
2023/05/06 05:38:11;;;;;;;4.53;3.35;;;11.00;99.90;;;;;;5053395;28;20083;-75
2023/05/06 05:40:37;;;;;;;7.65;3.50;;;11.20;99.90;;;;;;5035494;28;20071;-75
2023/05/06 05:43:03;;;;;;;6.72;3.40;;;11.20;99.90;;;;;;5053088;28;20032;-75
2023/05/06 05:45:29;;;;;;;9.20;3.90;;;11.30;99.90;;;;;;5053014;28;20020;-75
2023/05/06 05:47:54;;;;;;;9.43;3.67;;;11.50;99.90;;;;;;5052643;28;20033;-75
2023/05/06 05:50:20;;;;;;;7.82;3.45;;;11.60;99.90;;;;;;5035683;28;20095;-75
2023/05/06 05:52:46;;;;;;;7.55;3.53;;;11.70;99.90;;;;;;5052844;28;20029;-74
2023/05/06 05:55:12;;;;;;;7.30;3.13;;;11.80;99.90;;;;;;5053286;28;20083;-74
2023/05/06 05:57:37;;;;;;;5.13;3.67;;;11.90;99.90;;;;;;5052450;28;20044;-74
2023/05/06 06:00:04;;;;;;;8.80;3.60;;;11.90;99.90;;;;;;5052977;28;20025;-74
2023/05/06 06:02:30;;;;;;;10.32;3.72;;;12.00;99.90;;;;;;5052665;28;20017;-74
2023/05/06 06:04:56;;;;;;;11.20;3.65;;;12.10;99.90;;;;;;5052261;28;20028;-74
2023/05/06 06:07:22;;;;;;;7.00;3.40;;;12.20;99.90;;;;;;5052883;28;20063;-74
2023/05/06 06:09:47;;;;;;;6.95;3.75;;;12.30;99.90;;;;;;5034405;28;20025;-75
2023/05/06 06:12:14;;;;;;;6.57;3.65;;;12.40;99.90;;;;;;5052530;28;20061;-74
2023/05/06 06:14:39;;;;;;;8.57;3.22;;;12.50;99.90;;;;;;5051867;28;20488;-75
2023/05/06 06:17:05;;;;;;;6.63;3.35;;;12.50;99.90;;;;;;5053411;28;20108;-74
2023/05/06 06:19:31;;;;;;;7.97;3.13;;;12.60;99.90;;;;;;5052883;28;20025;-75
2023/05/06 06:21:57;;;;;;;5.18;2.92;;;12.60;99.90;;;;;;5034704;28;20036;-74
2023/05/06 06:24:23;;;;;;;8.18;3.20;;;12.70;99.90;;;;;;5052735;28;20025;-74
2023/05/06 06:26:49;;;;;;;8.50;3.20;;;12.70;99.90;;;;;;5034260;28;20040;-75
2023/05/06 06:29:14;;;;;;;9.73;3.45;;;12.70;99.90;;;;;;5018154;28;20141;-74
2023/05/06 06:31:40;;;;;;;8.52;3.50;;;12.80;99.90;;;;;;5051815;28;20032;-75
2023/05/06 06:34:07;;;;;;;8.35;3.42;;;12.90;99.90;;;;;;5052137;28;20047;-75
2023/05/06 06:36:33;;;;;;;6.72;2.72;;;12.90;99.90;;;;;;5051989;28;20032;-75
2023/05/06 06:38:59;;;;;;;6.47;3.40;;;12.90;99.90;;;;;;5052613;28;20025;-75
2023/05/06 06:41:26;;;;;;;6.93;3.20;;;13.00;99.90;;;;;;5052688;28;20032;-75
2023/05/06 06:43:52;;;;;;;7.18;2.92;;;13.00;99.90;;;;;;5052365;28;20769;-75
2023/05/06 06:46:18;;;;;;;7.75;3.15;;;13.10;99.90;;;;;;5054030;28;20025;-75
2023/05/06 06:48:44;;;;;;;8.48;3.80;;;13.10;99.90;;;;;;5056380;28;20420;-75
2023/05/06 06:51:10;;;;;;;6.28;2.97;;;13.10;99.90;;;;;;5056593;28;20029;-75
2023/05/06 06:53:35;;;;;;;8.40;3.25;;;13.20;99.90;;;;;;5056502;28;20017;-75
2023/05/06 06:56:01;;;;;;;7.45;3.55;;;13.30;99.90;;;;;;5056718;28;20029;-75
2023/05/06 06:58:27;;;;;;;6.25;3.58;;;13.30;99.90;;;;;;5057152;28;20127;-75
2023/05/06 07:00:53;;;;;;;10.40;3.40;;;13.40;99.90;;;;;;5039038;28;20025;-75
2023/05/06 07:03:18;;;;;;;7.85;3.55;;;13.40;99.90;;;;;;5039309;28;20525;-75
2023/05/06 07:05:44;;;;;;;7.28;3.63;;;13.60;99.90;;;;;;5056546;28;20478;-75
2023/05/06 07:08:10;;;;;;;8.35;3.60;;;13.60;99.90;;;;;;5039323;28;20033;-76
2023/05/06 07:10:36;;;;;;;7.55;3.30;;;13.70;99.90;;;;;;5056844;28;20029;-75
2023/05/06 07:13:02;;;;;;;8.65;2.92;;;13.80;99.90;;;;;;5038558;28;20057;-75
2023/05/06 07:15:28;;;;;;;6.75;2.97;;;13.90;99.90;;;;;;5056023;28;20445;-75
2023/05/06 07:17:53;;;;;;;7.88;3.10;;;14.00;99.90;;;;;;5055755;28;20033;-75
2023/05/06 07:20:20;;;;;;;9.55;3.20;;;13.90;99.90;;;;;;5056424;28;20379;-74
2023/05/06 07:22:45;;;;;;;9.10;3.42;;;14.00;99.90;;;;;;5056677;28;20021;-74
2023/05/06 07:25:11;;;;;;;10.35;3.17;;;14.00;99.90;;;;;;5055793;28;20031;-74
2023/05/06 07:27:37;;;;;;;10.40;3.63;;;14.00;99.90;;;;;;5055861;28;20466;-76
2023/05/06 07:30:03;;;;;;;9.65;3.50;;;13.90;99.90;;;;;;5055511;28;20090;-74
2023/05/06 07:32:29;;;;;;;9.65;3.38;;;14.00;99.90;;;;;;5054649;28;20086;-74
2023/05/06 07:34:55;;;;;;;7.88;3.22;;;14.00;99.90;;;;;;5055431;28;20029;-75
2023/05/06 07:37:21;;;;;;;8.85;2.97;;;14.20;99.90;;;;;;5055809;28;20033;-75
2023/05/06 07:39:46;;;;;;;10.77;3.53;;;14.20;99.90;;;;;;5055543;28;20097;-75
2023/05/06 07:42:12;;;;;;;9.35;3.00;;;14.20;99.90;;;;;;5055505;28;20441;-75
2023/05/06 07:44:38;;;;;;;10.90;3.85;;;14.30;99.90;;;;;;5055773;28;20029;-75
2023/05/06 07:47:04;;;;;;;9.15;3.17;;;14.40;99.90;;;;;;5055714;28;20029;-74
2023/05/06 07:49:32;;;;;;;6.75;2.63;;;14.40;99.90;;;;;;5037567;28;20029;-74
2023/05/06 07:51:58;;;;;;;9.50;3.03;;;14.50;99.90;;;;;;5054867;28;20059;-74
2023/05/06 07:54:24;;;;;;;9.48;3.50;;;14.40;99.90;;;;;;5054955;28;20025;-75
2023/05/06 07:56:50;;;;;;;8.50;3.58;;;14.40;99.90;;;;;;5054190;28;20460;-75
2023/05/06 07:59:15;;;;;;;7.18;3.17;;;14.40;99.90;;;;;;5037461;28;20032;-75
2023/05/06 08:01:41;;;;;;;6.03;2.90;;;14.50;99.90;;;;;;5054518;28;20107;-76
2023/05/06 08:04:07;;;;;;;15.23;4.25;;;14.60;99.90;;;;;;5054830;28;20017;-75
2023/05/06 08:06:33;;;;;;;6.10;2.97;;;14.60;99.90;;;;;;5054547;28;20524;-75
2023/05/06 08:08:59;;;;;;;7.40;3.00;;;14.60;99.90;;;;;;5054007;28;20586;-73
2023/05/06 08:11:25;;;;;;;9.07;2.80;;;14.60;99.90;;;;;;5054347;28;20033;-74
2023/05/06 08:13:50;;;;;;;7.30;3.33;;;14.70;99.90;;;;;;5036540;28;20021;-74
2023/05/06 08:16:16;;;;;;;10.70;3.03;;;14.70;99.90;;;;;;5054973;28;20036;-75
2023/05/06 08:18:42;;;;;;;9.35;3.60;;;14.80;99.90;;;;;;5053953;28;20386;-75
2023/05/06 08:21:08;;;;;;;10.30;3.20;;;14.90;99.90;;;;;;5054743;28;20052;-74
2023/05/06 08:23:34;;;;;;;8.57;3.03;;;14.90;99.90;;;;;;5036105;28;20464;-74
2023/05/06 08:26:00;;;;;;;6.00;2.90;;;15.00;99.90;;;;;;5053142;28;20029;-75
2023/05/06 08:28:28;;;;;;;7.45;2.45;;;15.00;99.90;;;;;;5054203;28;20036;-74
2023/05/06 08:30:54;;;;;;;10.32;2.67;;;14.90;99.90;;;;;;5053947;28;20032;-75
2023/05/06 08:33:20;;;;;;;7.65;2.80;;;14.90;99.90;;;;;;5036113;28;20032;-75
2023/05/06 08:35:46;;;;;;;11.85;2.80;;;14.90;99.90;;;;;;5054030;28;20100;-75
2023/05/06 08:38:12;;;;;;;5.60;2.47;;;14.90;99.90;;;;;;5054142;28;20036;-74
2023/05/06 08:40:42;;;;;;;9.02;2.67;;;15.00;99.90;;;;;;5036804;28;20028;-75
2023/05/06 08:43:13;;;;;;;8.70;2.70;;;15.00;99.90;;;;;;5054517;28;20021;-74
2023/05/06 08:45:40;;;;;;;10.48;2.80;;;15.10;99.90;;;;;;5054852;28;20032;-74
2023/05/06 08:48:05;;;;;;;10.63;2.72;;;15.00;99.90;;;;;;5053986;28;20025;-74
2023/05/06 08:50:32;;;;;;;8.95;2.85;;;15.00;99.90;;;;;;5036926;28;20036;-74
2023/05/06 08:53:00;;;;;;;6.45;2.20;;;15.10;99.90;;;;;;5054768;28;20088;-74
2023/05/06 08:55:27;;;;;;;7.57;2.20;;;15.20;99.90;;;;;;5056498;28;20393;-75
2023/05/06 08:57:55;;;;;;;7.45;2.55;;;15.10;99.90;;;;;;5054713;28;20069;-74
2023/05/06 09:00:21;;;;;;;7.20;2.53;;;15.30;99.90;;;;;;5020776;28;20033;-76
2023/05/06 09:02:46;;;;;;;7.28;2.33;;;15.30;99.90;;;;;;5035762;28;20352;-75
2023/05/06 09:05:12;;;;;;;6.95;2.53;;;15.50;99.90;;;;;;5036374;28;20051;-75
2023/05/06 09:07:38;;;;;;;10.05;2.92;;;15.50;99.90;;;;;;5054514;28;20031;-74
2023/05/06 09:10:12;;;;;;;7.55;2.30;;;15.60;99.90;;;;;;5035063;28;20021;-75
2023/05/06 09:12:38;;;;;;;12.07;2.00;;;15.70;99.90;;;;;;5054483;28;20029;-74
2023/05/06 09:15:04;;;;;;;5.65;2.22;;;15.80;99.90;;;;;;5053444;28;20044;-74
2023/05/06 09:17:31;;;;;;;7.22;2.40;;;15.70;99.90;;;;;;5053519;28;20033;-74
2023/05/06 09:19:57;;;;;;;6.55;2.30;;;15.60;99.90;;;;;;5053068;28;20025;-75
2023/05/06 09:22:26;;;;;;;5.95;2.25;;;15.60;99.90;;;;;;5054175;28;20067;-76
2023/05/06 09:24:56;;;;;;;9.27;2.85;;;15.40;99.90;;;;;;5053040;28;20021;-75
2023/05/06 09:27:30;;;;;;;6.75;2.20;;;15.30;99.90;;;;;;5036936;28;20489;-75
2023/05/06 09:30:07;;;;;;;5.72;1.88;;;15.30;99.90;;;;;;5053527;28;20564;-75
2023/05/06 09:32:33;;;;;;;5.63;2.38;;;15.30;99.90;;;;;;5054586;28;20059;-74
2023/05/06 09:35:00;;;;;;;6.93;2.55;;;15.30;99.90;;;;;;5053934;28;20044;-76
2023/05/06 09:37:26;;;;;;;7.07;2.17;;;15.40;99.90;;;;;;5054247;28;20039;-75
2023/05/06 09:39:57;;;;;;;8.68;2.60;;;15.40;99.90;;;;;;5054352;28;20060;-75
2023/05/06 09:42:28;;;;;;;6.53;2.42;;;15.50;99.90;;;;;;5054660;28;20485;-75
2023/05/06 09:44:56;;;;;;;5.53;2.33;;;15.40;99.90;;;;;;5053608;28;20025;-75
2023/05/06 09:47:26;;;;;;;6.95;2.22;;;15.40;99.90;;;;;;5054286;28;20068;-74
2023/05/06 09:49:58;;;;;;;10.88;2.75;;;15.50;99.90;;;;;;5053314;28;20033;-77
2023/05/06 09:52:26;;;;;;;8.73;2.50;;;15.50;99.90;;;;;;5054992;28;20036;-75
2023/05/06 09:54:53;;;;;;;12.05;2.63;;;15.70;99.90;;;;;;5054267;28;20028;-75
2023/05/06 09:57:20;;;;;;;7.30;2.42;;;15.80;99.90;;;;;;5053952;28;20470;-75
2023/05/06 09:59:47;;;;;;;8.10;2.42;;;15.80;99.90;;;;;;5052519;28;20021;-75
2023/05/06 10:02:13;;;;;;;9.80;2.60;;;15.80;99.90;;;;;;5056482;28;20025;-74
2023/05/06 10:04:42;;;;;;;6.03;2.63;;;15.70;99.90;;;;;;5052951;28;20094;-75
2023/05/06 10:07:12;;;;;;;8.65;3.35;;;15.70;99.90;;;;;;5035278;28;20486;-77
2023/05/06 10:09:39;;;;;;;10.48;3.20;;;15.70;99.90;;;;;;5053735;28;20048;-74
2023/05/06 10:12:08;;;;;;;9.65;3.30;;;15.60;99.90;;;;;;5053019;28;20043;-75
2023/05/06 10:14:37;;;;;;;7.15;2.72;;;15.60;99.90;;;;;;5053436;28;20025;-75
2023/05/06 10:17:11;;;;;;;7.43;3.05;;;15.60;99.90;;;;;;5052585;28;20036;-75
2023/05/06 10:19:44;;;;;;;14.52;3.80;;;15.50;99.90;;;;;;5053567;28;20071;-75
2023/05/06 10:22:15;;;;;;;;;;;15.50;99.90;;;;;;5056131;28;20021;-74
2023/05/06 10:24:51;;;;;;;12.55;3.60;;;15.30;99.90;;;;;;5057494;28;20413;-76
2023/05/06 10:27:19;;;;;;;9.45;3.42;;;15.20;99.90;;;;;;5057880;28;20112;-75
2023/05/06 10:29:47;;;;;;;9.75;3.22;;;15.10;99.90;;;;;;5056645;28;20041;-75
2023/05/06 10:32:13;;;;;;;10.77;3.20;;;15.00;99.90;;;;;;5038730;28;20048;-76
2023/05/06 10:34:46;;;;;;;11.18;3.10;;;15.00;99.90;;;;;;5057140;28;20470;-75
2023/05/06 10:37:13;;;;;;;8.30;2.85;;;15.00;99.90;;;;;;5056912;28;20112;-75
2023/05/06 10:39:40;;;;;;;10.30;2.97;;;15.00;99.90;;;;;;5057544;28;20029;-76
2023/05/06 10:42:09;;;;;;;7.15;2.97;;;15.00;99.90;;;;;;5056797;28;20386;-75
2023/05/06 10:44:58;;;;;;;6.30;2.38;;;15.10;99.90;;;;;;5056700;28;20483;-75
2023/05/06 10:47:24;;;;;;;11.45;3.15;;;15.10;99.90;;;;;;5056725;28;20061;-76
2023/05/06 10:50:24;;;;;;;12.07;3.72;;;15.10;99.90;;;;;;5056311;28;20036;-76
2023/05/06 10:52:55;;;;;;;12.93;3.55;;;15.10;99.90;;;;;;5056434;28;20501;-76
2023/05/06 10:55:26;;;;;;;8.13;2.90;;;15.10;99.90;;;;;;5057455;28;20025;-75
2023/05/06 10:58:00;;;;;;;7.85;3.28;;;15.10;99.90;;;;;;5056244;28;20423;-76
2023/05/06 11:00:30;;;;;;;6.28;3.45;;;15.10;99.90;;;;;;5057066;28;20025;-75
2023/05/06 11:02:56;;;;;;;6.03;2.50;;;15.20;99.90;;;;;;5056201;28;20083;-75
2023/05/06 11:05:23;;;;;;;10.27;3.22;;;15.10;99.90;;;;;;5056394;28;20036;-75
2023/05/06 11:07:50;;;;;;;9.35;3.55;;;15.20;99.90;;;;;;5056944;28;20583;-75
2023/05/06 11:10:33;;;;;;;13.23;3.50;;;15.20;99.90;;;;;;5056179;28;20098;-75
2023/05/06 11:13:26;;;;;;;11.95;4.05;;;15.40;99.90;;;;;;5055837;28;20025;-74
2023/05/06 11:15:56;;;;;;;11.85;3.10;;;15.60;99.90;;;;;;5056145;28;20047;-76
2023/05/06 11:18:30;;;;;;;13.50;3.65;;;15.90;99.90;;;;;;5056444;28;20037;-75
2023/05/06 11:20:59;;;;;;;9.15;3.25;;;16.00;99.90;;;;;;5055881;28;20033;-75
2023/05/06 11:24:07;;;;;;;12.85;3.63;;;16.30;99.90;;;;;;5056314;28;20382;-75
2023/05/06 11:26:33;;;;;;;10.02;3.40;;;16.40;99.90;;;;;;5055430;28;20045;-75
2023/05/06 11:29:01;;;;;;;11.10;3.53;;;16.50;99.90;;;;;;5054774;28;20056;-76
2023/05/06 11:31:29;;;;;;;11.25;3.33;;;16.60;99.90;;;;;;5037922;28;20036;-75
2023/05/06 11:33:58;;;;;;;14.85;3.45;;;16.50;99.90;;;;;;5054909;28;20071;-76
2023/05/06 11:36:24;;;;;;;9.70;3.53;;;16.50;99.90;;;;;;5056056;28;20060;-75
2023/05/06 11:38:55;;;;;;;15.20;3.60;;;16.40;99.90;;;;;;5056231;28;20115;-75
2023/05/06 11:41:22;;;;;;;14.13;3.53;;;16.50;99.90;;;;;;5055819;28;20029;-75
2023/05/06 11:43:49;;;;;;;10.40;3.17;;;16.40;99.90;;;;;;5055923;28;20029;-75
2023/05/06 11:46:19;;;;;;;7.75;3.13;;;16.30;99.90;;;;;;5055471;28;20104;-74
2023/05/06 11:48:46;;;;;;;8.32;2.63;;;16.40;99.90;;;;;;5054448;28;20363;-75
2023/05/06 11:51:11;;;;;;;12.40;3.58;;;16.40;99.90;;;;;;5056975;28;20459;-75
2023/05/06 11:53:37;;;;;;;9.15;2.90;;;16.40;99.90;;;;;;5055464;28;20025;-75
2023/05/06 11:56:05;;;;;;;10.90;3.13;;;16.30;99.90;;;;;;5037553;28;20025;-75
2023/05/06 11:58:31;;;;;;;13.68;3.47;;;16.30;99.90;;;;;;5055901;28;20033;-75
2023/05/06 12:01:02;;;;;;;8.38;3.45;;;16.30;99.90;;;;;;5055049;28;20075;-76
2023/05/06 12:03:30;;;;;;;14.07;3.28;;;16.40;99.90;;;;;;5055097;28;20429;-75
2023/05/06 12:05:56;;;;;;;11.07;3.40;;;16.40;99.90;;;;;;5055802;28;20378;-75
2023/05/06 12:08:28;;;;;;;11.43;2.97;;;16.30;99.90;;;;;;5054940;28;20037;-75
2023/05/06 12:10:57;;;;;;;6.37;2.23;;;16.40;99.90;;;;;;5054877;28;20382;-75
2023/05/06 12:13:23;;;;;;;7.72;2.15;;;16.50;99.90;;;;;;5055377;28;20021;-75
2023/05/06 12:15:49;;;;;;;6.95;2.20;;;16.90;99.90;;;;;;5054371;28;20078;-76
2023/05/06 12:18:15;;;;;;;6.15;2.00;;;17.20;99.90;;;;;;5054143;28;20670;-76
2023/05/06 12:20:41;;;;;;;4.93;2.10;;;17.50;99.90;;;;;;5057278;28;20032;-75
2023/05/06 12:23:09;;;;;;;5.57;2.05;;;17.80;99.90;;;;;;5055487;28;20021;-76
2023/05/06 12:25:35;;;;;;;6.45;2.03;;;18.00;99.90;;;;;;5055913;28;20108;-75
2023/05/06 12:28:11;;;;;;;5.72;2.03;;;18.10;99.90;;;;;;5054601;28;20093;-76
2023/05/06 12:30:37;;;;;;;5.53;2.30;;;18.10;99.90;;;;;;5037396;28;20045;-76
2023/05/06 12:33:03;;;;;;;5.20;2.20;;;17.70;99.90;;;;;;5053407;28;20053;-76
2023/05/06 12:35:31;;;;;;;4.80;1.73;;;17.60;99.90;;;;;;5054084;28;20054;-75
2023/05/06 12:38:10;;;;;;;4.00;1.90;;;17.50;99.90;;;;;;5054040;28;20033;-76
2023/05/06 12:40:36;;;;;;;7.65;2.72;;;17.40;99.90;;;;;;5054224;28;20025;-75
2023/05/06 12:43:02;;;;;;;7.70;2.58;;;17.30;99.90;;;;;;5051466;28;20025;-76
2023/05/06 12:45:28;;;;;;;4.60;1.90;;;17.40;99.90;;;;;;5052928;28;20619;-76
2023/05/06 12:47:58;;;;;;;6.00;1.55;;;17.60;99.90;;;;;;5053801;28;20108;-75